Time;durP1;ratioP1;P1;durP2;ratioP2;P2;SDS_P1;SDS_P2;PMS_P1;PMS_P2;Temp;Humidity;BMP_temperature;BMP_pressure;BME280_temperature;BME280_humidity;BME280_pressure;Samples;Min_cycle;Max_cycle;Signal;HPM_P1;HPM_P2
2023/02/25 00:04:27;;;;;;;;;;;;;;;3.03;100.00;100658.72;10401203;28;19925;-68
2023/02/25 00:09:29;;;;;;;;;;;;;;;3.25;100.00;100657.19;10400220;28;19929;-68
2023/02/25 00:14:32;;;;;;;;;;;;;;;3.28;100.00;100659.69;10418912;28;19932;-68
2023/02/25 00:19:34;;;;;;;;;;;;;;;3.10;100.00;100655.91;10419380;28;19975;-68
2023/02/25 00:24:36;;;;;;;;;;;;;;;3.30;100.00;100654.47;10418772;28;19925;-68
2023/02/25 00:29:38;;;;;;;;;;;;;;;3.23;100.00;100647.78;10416425;28;19933;-68
2023/02/25 00:34:41;;;;;;;;;;;;;;;3.27;100.00;100655.41;10416900;28;19925;-68
2023/02/25 00:39:43;;;;;;;;;;;;;;;3.08;100.00;100655.09;10400584;28;20043;-68
2023/02/25 00:44:46;;;;;;;;;;;;;;;2.89;100.00;100662.53;10417975;28;19933;-68
2023/02/25 00:49:49;;;;;;;;;;;;;;;2.94;100.00;100659.81;10397537;28;20330;-68
2023/02/25 00:54:51;;;;;;;;;;;;;;;3.03;100.00;100664.72;10418714;28;19979;-68
2023/02/25 00:59:53;;;;;;;;;;;;;;;3.07;100.00;100666.31;10416882;28;19983;-68
2023/02/25 01:04:55;;;;;;;;;;;;;;;3.10;100.00;100663.66;10416437;28;19925;-68
2023/02/25 01:09:57;;;;;;;;;;;;;;;3.09;100.00;100661.97;10416261;28;19925;-68
2023/02/25 01:15:00;;;;;;;;;;;;;;;3.08;100.00;100667.19;10416305;28;20386;-68
2023/02/25 01:20:05;;;;;;;;;;;;;;;3.19;100.00;100672.06;10416780;28;19933;-68
2023/02/25 01:25:11;;;;;;;;;;;;;;;3.44;100.00;100685.13;10414746;28;20024;-68
2023/02/25 01:30:14;;;;;;;;;;;;;;;3.29;100.00;100678.66;10397827;28;19932;-68
2023/02/25 01:35:16;;;;;;;;;;;;;;;3.39;100.00;100666.28;10416261;28;19932;-68
2023/02/25 01:40:19;;;;;;;;;;;;;;;3.30;100.00;100670.84;10414919;28;20292;-68
2023/02/25 01:45:23;;;;;;;;;;;;;;;3.29;100.00;100660.53;10455844;28;19925;-68
2023/02/25 01:50:28;;;;;;;;;;;;;;;3.12;100.00;100661.88;10439637;28;19925;-68
2023/02/25 01:55:30;;;;;;;;;;;;;;;3.13;100.00;100660.16;10433364;28;20384;-68
2023/02/25 02:00:32;;;;;;;;;;;;;;;3.06;100.00;100654.31;10396638;28;20388;-68
2023/02/25 02:06:04;;;;;;;;;;;;;;;3.09;100.00;100651.63;10415642;28;19929;-68
2023/02/25 02:11:06;;;;;;;;;;;;;;;3.04;100.00;100660.41;10394227;28;19952;-68
2023/02/25 02:16:27;;;;;;;;;;;;;;;3.07;100.00;100665.50;10413800;28;19925;-68
2023/02/25 02:21:35;;;;;;;;;;;;;;;3.01;100.00;100666.53;10397974;28;19972;-68
2023/02/25 02:26:56;;;;;;;;;;;;;;;3.08;100.00;100668.03;10415637;28;19929;-68
2023/02/25 02:31:58;;;;;;;;;;;;;;;3.10;100.00;100675.75;10414634;28;19975;-68
2023/02/25 02:37:16;;;;;;;;;;;;;;;3.34;100.00;100674.19;10415723;28;19925;-68
2023/02/25 02:42:30;;;;;;;;;;;;;;;3.44;100.00;100674.78;10421557;28;19925;-68
2023/02/25 02:47:36;;;;;;;;;;;;;;;3.31;100.00;100669.09;10404296;28;20029;-68
2023/02/25 02:52:42;;;;;;;;;;;;;;;3.40;100.00;100676.59;10387162;28;19926;-68
2023/02/25 02:57:44;;;;;;;;;;;;;;;3.42;100.00;100671.38;10403501;28;19995;-68
2023/02/25 03:02:51;;;;;;;;;;;;;;;3.58;100.00;100664.88;10421264;28;19971;-68
2023/02/25 03:07:59;;;;;;;;;;;;;;;3.36;100.00;100664.63;10404078;28;19925;-68
2023/02/25 03:13:01;;;;;;;;;;;;;;;3.44;100.00;100675.59;10401661;28;19929;-68
2023/02/25 03:18:05;;;;;;;;;;;;;;;3.46;100.00;100678.16;10403296;28;19925;-68
2023/02/25 03:23:08;;;;;;;;;;;;;;;3.50;100.00;100672.00;10402450;28;19932;-68
2023/02/25 03:28:23;;;;;;;;;;;;;;;3.47;100.00;100682.44;10403294;28;19982;-68
2023/02/25 03:33:34;;;;;;;;;;;;;;;3.61;100.00;100692.38;10402706;28;20307;-68
2023/02/25 03:38:37;;;;;;;;;;;;;;;3.58;100.00;100687.28;10402995;28;19951;-68
2023/02/25 03:43:41;;;;;;;;;;;;;;;3.58;100.00;100692.47;10419804;28;20284;-68
2023/02/25 03:48:43;;;;;;;;;;;;;;;3.67;100.00;100687.88;10400144;28;19995;-68
2023/02/25 03:53:45;;;;;;;;;;;;;;;3.69;100.00;100693.00;10402513;28;19987;-68
2023/02/25 03:58:47;;;;;;;;;;;;;;;3.72;100.00;100701.53;10419384;28;19979;-68
2023/02/25 04:03:49;;;;;;;;;;;;;;;3.54;100.00;100696.91;10418195;28;19933;-68
2023/02/25 04:08:51;;;;;;;;;;;;;;;3.44;100.00;100717.03;10418698;28;19925;-68
2023/02/25 04:13:54;;;;;;;;;;;;;;;3.58;100.00;100720.94;10401050;28;20407;-68
2023/02/25 04:18:56;;;;;;;;;;;;;;;3.67;100.00;100710.34;10417067;28;19925;-68
2023/02/25 04:24:01;;;;;;;;;;;;;;;3.74;100.00;100724.78;10418159;28;19925;-68
2023/02/25 04:29:03;;;;;;;;;;;;;;;3.51;100.00;100730.63;10418660;28;19925;-68
2023/02/25 04:34:05;;;;;;;;;;;;;;;3.28;100.00;100731.31;10416735;28;19932;-67
2023/02/25 04:39:09;;;;;;;;;;;;;;;3.46;100.00;100729.91;10400788;28;19932;-68
2023/02/25 04:44:11;;;;;;;;;;;;;;;3.32;100.00;100732.91;10399333;28;19979;-68
2023/02/25 04:49:13;;;;;;;;;;;;;;;3.22;100.00;100731.47;10417689;28;19925;-68
2023/02/25 04:54:17;;;;;;;;;;;;;;;3.33;100.00;100738.06;10417785;28;19932;-68
2023/02/25 04:59:19;;;;;;;;;;;;;;;3.15;100.00;100741.16;10397637;28;19931;-68
2023/02/25 05:04:21;;;;;;;;;;;;;;;3.18;100.00;100735.91;10415634;28;19948;-68
2023/02/25 05:09:24;;;;;;;;;;;;;;;3.28;100.00;100729.56;10414601;28;19929;-68
2023/02/25 05:14:26;;;;;;;;;;;;;;;3.12;100.00;100723.97;10416940;28;19925;-68
2023/02/25 05:19:28;;;;;;;;;;;;;;;2.98;100.00;100726.09;10398658;28;20372;-68
2023/02/25 05:24:31;;;;;;;;;;;;;;;3.11;100.00;100729.16;10418522;28;20318;-68
2023/02/25 05:29:34;;;;;;;;;;;;;;;3.29;100.00;100739.00;10457111;28;19924;-68
2023/02/25 05:34:37;;;;;;;;;;;;;;;3.29;100.00;100739.00;10440082;28;19975;-68
2023/02/25 05:39:39;;;;;;;;;;;;;;;3.21;100.00;100741.00;10435111;28;19925;-68
2023/02/25 05:44:41;;;;;;;;;;;;;;;3.37;100.00;100741.41;10397084;28;19925;-68
2023/02/25 05:49:43;;;;;;;;;;;;;;;3.41;100.00;100735.22;10415416;28;19925;-68
2023/02/25 05:54:47;;;;;;;;;;;;;;;3.38;100.00;100735.34;10416004;28;19925;-68
2023/02/25 05:59:49;;;;;;;;;;;;;;;3.32;100.00;100746.69;10398342;28;19951;-68
2023/02/25 06:04:54;;;;;;;;;;;;;;;3.30;100.00;100729.53;10414190;28;19925;-68
2023/02/25 06:09:59;;;;;;;;;;;;;;;3.13;100.00;100742.94;10415677;28;19925;-68
2023/02/25 06:15:01;;;;;;;;;;;;;;;3.30;100.00;100755.41;10421217;28;20334;-68
2023/02/25 06:20:05;;;;;;;;;;;;;;;3.19;100.00;100749.66;10422398;28;19925;-68
2023/02/25 06:25:07;;;;;;;;;;;;;;;3.10;100.00;100764.56;10418057;28;19980;-68
2023/02/25 06:30:09;;;;;;;;;;;;;;;3.30;100.00;100760.59;10405655;28;19991;-68
2023/02/25 06:35:13;;;;;;;;;;;;;;;3.24;100.00;100766.75;10402985;28;20439;-68
2023/02/25 06:40:16;;;;;;;;;;;;;;;3.16;100.00;100774.75;10422233;28;19925;-69
2023/02/25 06:45:18;;;;;;;;;;;;;;;3.16;100.00;100787.69;10421661;28;19925;-69
2023/02/25 06:50:20;;;;;;;;;;;;;;;3.26;100.00;100796.06;10404769;28;19929;-68
2023/02/25 06:55:22;;;;;;;;;;;;;;;3.20;100.00;100793.63;10404458;28;19925;-68
2023/02/25 07:00:24;;;;;;;;;;;;;;;3.17;100.00;100796.28;10421297;28;19995;-68
2023/02/25 07:05:27;;;;;;;;;;;;;;;3.00;100.00;100804.50;10419672;28;19932;-68
2023/02/25 07:10:29;;;;;;;;;;;;;;;3.01;100.00;100813.09;10421640;28;19971;-68
2023/02/25 07:15:31;;;;;;;;;;;;;;;3.59;100.00;100834.81;10403406;28;19928;-68
2023/02/25 07:20:33;;;;;;;;;;;;;;;3.41;100.00;100836.16;10405238;28;20317;-68
2023/02/25 07:25:36;;;;;;;;;;;;;;;3.38;100.00;100836.28;10361466;28;20442;-69
2023/02/25 07:30:39;;;;;;;;;;;;;;;3.23;100.00;100842.69;10378148;28;20373;-69
2023/02/25 07:35:41;;;;;;;;;;;;;;;3.30;100.00;100849.41;10381197;28;20288;-69
2023/02/25 07:40:43;;;;;;;;;;;;;;;3.29;100.00;100857.22;10421204;28;20391;-68
2023/02/25 07:45:47;;;;;;;;;;;;;;;3.45;100.00;100853.34;10420415;28;19971;-69
2023/02/25 07:50:50;;;;;;;;;;;;;;;3.66;100.00;100851.03;10430702;28;19929;-68
2023/02/25 07:55:52;;;;;;;;;;;;;;;3.96;100.00;100864.88;10401655;28;19940;-69
2023/02/25 08:00:54;;;;;;;;;;;;;;;3.88;100.00;100857.34;10424114;28;19925;-69
2023/02/25 08:05:56;;;;;;;;;;;;;;;4.09;100.00;100857.59;10402101;28;19975;-69
2023/02/25 08:10:58;;;;;;;;;;;;;;;4.05;100.00;100863.75;10418702;28;20376;-68
2023/02/25 08:16:05;;;;;;;;;;;;;;;4.25;100.00;100874.38;10420491;28;19929;-69
2023/02/25 08:21:11;;;;;;;;;;;;;;;4.22;100.00;100877.06;10401135;28;19933;-69
2023/02/25 08:26:16;;;;;;;;;;;;;;;4.40;100.00;100882.59;10417869;28;19926;-69
2023/02/25 08:31:18;;;;;;;;;;;;;;;4.41;100.00;100889.47;10417754;28;20288;-68
2023/02/25 08:36:21;;;;;;;;;;;;;;;4.68;100.00;100894.72;10399006;28;20404;-69
2023/02/25 08:41:24;;;;;;;;;;;;;;;4.74;100.00;100891.91;10400639;28;19933;-69
2023/02/25 08:46:27;;;;;;;;;;;;;;;5.30;100.00;100897.00;10399824;28;20311;-69
2023/02/25 08:51:33;;;;;;;;;;;;;;;5.28;100.00;100888.44;10416491;28;20019;-69
2023/02/25 08:56:36;;;;;;;;;;;;;;;5.69;100.00;100888.72;10417344;28;19925;-69
2023/02/25 09:01:44;;;;;;;;;;;;;;;5.75;100.00;100885.91;10398564;28;19932;-69
2023/02/25 09:06:47;;;;;;;;;;;;;;;5.44;100.00;100899.13;10416596;28;20304;-69
2023/02/25 09:11:49;;;;;;;;;;;;;;;5.71;100.00;100922.44;10399677;28;19929;-69
2023/02/25 09:16:51;;;;;;;;;;;;;;;5.51;100.00;100939.56;10416951;28;20048;-69
2023/02/25 09:21:54;;;;;;;;;;;;;;;4.91;100.00;100962.28;10416803;28;19971;-69
2023/02/25 09:26:56;;;;;;;;;;;;;;;4.75;100.00;100977.47;10416610;28;19932;-69
2023/02/25 09:31:58;;;;;;;;;;;;;;;4.46;100.00;100988.72;10416555;28;19925;-69
2023/02/25 09:37:05;;;;;;;;;;;;;;;4.77;100.00;100975.66;10415826;28;20380;-69
2023/02/25 09:42:12;;;;;;;;;;;;;;;5.01;100.00;100981.84;10415624;28;20327;-69
2023/02/25 09:47:47;;;;;;;;;;;;;;;5.34;100.00;100996.41;10398070;28;19926;-70
2023/02/25 09:52:52;;;;;;;;;;;;;;;5.78;99.77;101001.84;10362091;28;19933;-69
2023/02/25 09:58:11;;;;;;;;;;;;;;;6.20;95.23;100995.25;10415102;28;19925;-65
2023/02/25 10:03:18;;;;;;;;;;;;;;;6.21;93.99;101012.56;10398295;28;19925;-69
2023/02/25 10:08:22;;;;;;;;;;;;;;;6.58;92.99;101012.06;10415139;28;19951;-70
2023/02/25 10:13:44;;;;;;;;;;;;;;;6.38;92.27;101019.75;10405457;23;19926;-70
2023/02/25 10:18:53;;;;;;;;;;;;;;;6.66;91.12;101009.19;10374173;28;19941;-71
2023/02/25 10:23:59;;;;;;;;;;;;;;;5.10;96.53;101063.78;10373542;28;19926;-71
2023/02/25 10:29:03;;;;;;;;;;;;;;;5.25;100.00;101040.84;10376408;28;19995;-70
2023/02/25 10:34:19;;;;;;;;;;;;;;;5.00;100.00;101057.16;10373763;28;19925;-70
2023/02/25 10:39:21;;;;;;;;;;;;;;;8.00;95.22;101053.31;10357879;28;19925;-70
2023/02/25 10:44:23;;;;;;;;;;;;;;;11.27;92.94;101048.63;10356972;28;19934;-70
2023/02/25 10:49:27;;;;;;;;;;;;;;;11.05;79.94;101028.03;10374045;28;19979;-70
2023/02/25 10:54:34;;;;;;;;;;;;;;;13.25;73.06;101027.13;10357119;28;19925;-70
2023/02/25 10:59:38;;;;;;;;;;;;;;;9.56;76.10;101035.78;10358711;28;19925;-71
2023/02/25 11:04:40;;;;;;;;;;;;;;;8.39;78.52;101042.06;10381014;28;19925;-70
2023/02/25 11:09:42;;;;;;;;;;;;;;;6.26;81.26;101105.09;10368816;28;20391;-70
2023/02/25 11:14:45;;;;;;;;;;;;;;;6.29;84.17;101098.94;10380449;28;19929;-70
2023/02/25 11:19:52;;;;;;;;;;;;;;;5.99;85.99;101080.88;10362443;28;20332;-70
2023/02/25 11:24:58;;;;;;;;;;;;;;;8.71;78.83;101076.38;10364024;28;19925;-70
2023/02/25 11:30:07;;;;;;;;;;;;;;;7.06;73.67;101088.34;10362048;28;20289;-71
2023/02/25 11:35:16;;;;;;;;;;;;;;;6.70;75.57;101081.00;10362700;28;19971;-70
2023/02/25 11:40:20;;;;;;;;;;;;;;;7.36;74.59;101073.31;10362285;28;19925;-71
2023/02/25 11:45:22;;;;;;;;;;;;;;;10.72;72.59;101078.69;10389405;28;20376;-71
2023/02/25 11:50:26;;;;;;;;;;;;;;;13.35;63.48;101075.56;10402750;28;19960;-71
2023/02/25 11:55:31;;;;;;;;;;;;;;;13.72;63.54;101070.53;10403928;28;19925;-71
2023/02/25 12:00:43;;;;;;;;;;;;;;;13.69;55.86;101070.72;10420726;28;19929;-71
2023/02/25 12:05:54;;;;;;;;;;;;;;;15.32;58.56;101081.50;10422454;28;19994;-71
2023/02/25 12:11:15;;;;;;;;;;;;;;;14.04;55.82;101064.06;10419009;28;19975;-71
2023/02/25 12:16:18;;;;;;;;;;;;;;;11.10;58.56;101080.19;10419343;28;19932;-71
2023/02/25 12:21:39;;;;;;;;;;;;;;;13.88;55.80;101077.41;10420918;28;19931;-70
2023/02/25 12:27:00;;;;;;;;;;;;;;;15.35;52.94;101066.28;10418585;28;19925;-71
2023/02/25 12:32:20;;;;;;;;;;;;;;;14.96;46.84;101056.81;10418362;28;19941;-69
2023/02/25 12:37:22;;;;;;;;;;;;;;;13.33;51.63;101069.56;10359776;28;19936;-68
2023/02/25 12:42:37;;;;;;;;;;;;;;;15.26;51.80;101071.38;10376603;28;20380;-69
2023/02/25 12:47:58;;;;;;;;;;;;;;;12.75;51.21;101076.69;10387120;28;20376;-68
2023/02/25 12:53:26;;;;;;;;;;;;;;;16.21;48.89;101077.50;10427585;28;19925;-70
2023/02/25 12:58:38;;;;;;;;;;;;;;;16.83;48.19;101089.44;10379431;28;19925;-70
2023/02/25 13:03:43;;;;;;;;;;;;;;;16.16;49.63;101085.78;10399989;28;19929;-70
2023/02/25 13:08:52;;;;;;;;;;;;;;;14.22;46.51;101086.50;10417237;28;19932;-70
2023/02/25 13:14:04;;;;;;;;;;;;;;;12.64;46.84;101106.25;10416650;28;20299;-70
2023/02/25 13:19:13;;;;;;;;;;;;;;;14.47;48.17;101109.38;10398951;28;20258;-69
2023/02/25 13:24:27;;;;;;;;;;;;;;;16.58;46.67;101109.03;10414815;28;19932;-70
2023/02/25 13:29:32;;;;;;;;;;;;;;;11.20;48.01;101120.69;10415895;28;20257;-68
2023/02/25 13:34:41;;;;;;;;;;;;;;;14.12;44.26;101122.28;10416457;28;19925;-68
2023/02/25 13:39:43;;;;;;;;;;;;;;;17.81;41.91;101112.41;10398121;28;20279;-70
2023/02/25 13:45:05;;;;;;;;;;;;;;;18.38;37.33;101117.41;10416061;28;19975;-70
2023/02/25 13:50:26;;;;;;;;;;;;;;;13.85;44.54;101132.88;10416346;28;19925;-68
2023/02/25 13:55:37;;;;;;;;;;;;;;;13.17;42.37;101147.69;10422105;28;19929;-68
2023/02/25 14:00:58;;;;;;;;;;;;;;;17.86;39.78;101133.22;10415702;28;19936;-68
2023/02/25 14:06:02;;;;;;;;;;;;;;;19.04;34.54;101140.88;10417973;28;19925;-69
2023/02/25 14:11:13;;;;;;;;;;;;;;;20.54;30.71;101146.81;10412537;28;20042;-68
2023/02/25 14:16:34;;;;;;;;;;;;;;;22.33;31.21;101142.75;10414393;28;19952;-68
2023/02/25 14:21:52;;;;;;;;;;;;;;;22.22;29.17;101141.13;10415942;28;20312;-68
2023/02/25 14:27:00;;;;;;;;;;;;;;;20.50;27.57;101158.72;10381776;28;19951;-67
2023/02/25 14:32:17;;;;;;;;;;;;;;;23.02;27.96;101157.97;10417940;28;19933;-68
2023/02/25 14:37:20;;;;;;;;;;;;;;;22.57;27.98;101159.91;10422142;28;19925;-68
2023/02/25 14:42:25;;;;;;;;;;;;;;;20.99;28.99;101174.53;10418389;28;20284;-68
2023/02/25 14:47:32;;;;;;;;;;;;;;;18.14;31.61;101189.22;10409985;28;19929;-68
2023/02/25 14:52:37;;;;;;;;;;;;;;;22.73;28.49;101186.69;10404133;28;19987;-68
2023/02/25 14:57:59;;;;;;;;;;;;;;;22.52;27.04;101184.38;10416045;28;19925;-68
2023/02/25 15:03:04;;;;;;;;;;;;;;;24.08;23.57;101184.13;10425713;28;19932;-69
2023/02/25 15:08:14;;;;;;;;;;;;;;;25.64;25.14;101193.50;10410208;28;19936;-69
2023/02/25 15:13:19;;;;;;;;;;;;;;;20.60;28.09;101207.41;10402159;28;19925;-68
2023/02/25 15:18:28;;;;;;;;;;;;;;;15.40;31.44;101209.25;10419260;28;19956;-68
2023/02/25 15:23:40;;;;;;;;;;;;;;;14.72;35.44;101230.72;10420096;28;19925;-68
2023/02/25 15:28:44;;;;;;;;;;;;;;;16.33;34.34;101224.53;10406125;28;20012;-68
2023/02/25 15:33:46;;;;;;;;;;;;;;;12.67;39.37;101238.34;10403298;28;20402;-68
2023/02/25 15:38:55;;;;;;;;;;;;;;;11.19;41.41;101252.63;10418826;28;19978;-68
2023/02/25 15:44:06;;;;;;;;;;;;;;;11.71;42.08;101265.56;10405963;28;19932;-68
2023/02/25 15:49:20;;;;;;;;;;;;;;;10.15;41.69;101263.94;10418763;28;19925;-68
2023/02/25 15:54:28;;;;;;;;;;;;;;;10.41;42.13;101266.19;10402710;28;19956;-68
2023/02/25 15:59:42;;;;;;;;;;;;;;;8.44;47.81;101287.16;10420055;28;19971;-68
2023/02/25 16:04:49;;;;;;;;;;;;;;;7.48;46.93;101303.84;10419815;28;19925;-67
2023/02/25 16:09:53;;;;;;;;;;;;;;;6.99;49.52;101302.97;10402183;28;19932;-67
2023/02/25 16:14:55;;;;;;;;;;;;;;;6.43;51.66;101314.34;10401456;28;19925;-67
2023/02/25 16:19:58;;;;;;;;;;;;;;;6.16;49.75;101323.88;10401022;28;20380;-67
2023/02/25 16:25:01;;;;;;;;;;;;;;;6.09;50.25;101320.59;10401447;28;19925;-67
2023/02/25 16:30:23;;;;;;;;;;;;;;;5.86;53.47;101335.09;10400019;28;20324;-67
2023/02/25 16:35:27;;;;;;;;;;;;;;;5.35;54.32;101346.06;10417854;28;19957;-67
2023/02/25 16:40:30;;;;;;;;;;;;;;;5.57;54.35;101352.34;10400828;28;19925;-67
2023/02/25 16:45:35;;;;;;;;;;;;;;;5.27;55.31;101363.56;10400550;28;19929;-67
2023/02/25 16:50:37;;;;;;;;;;;;;;;5.52;55.66;101375.00;10398648;28;19925;-67
2023/02/25 16:55:39;;;;;;;;;;;;;;;5.06;56.92;101375.34;10421264;28;19925;-67
2023/02/25 17:00:55;;;;;;;;;;;;;;;4.83;56.81;101379.38;10417487;28;20361;-67
2023/02/25 17:05:59;;;;;;;;;;;;;;;4.45;56.80;101386.28;10416981;28;19929;-67
2023/02/25 17:11:01;;;;;;;;;;;;;;;4.26;57.70;101391.03;10417987;28;19951;-67
2023/02/25 17:16:04;;;;;;;;;;;;;;;4.59;58.55;101402.41;10438488;28;19933;-67
2023/02/25 17:21:12;;;;;;;;;;;;;;;4.50;59.11;101407.78;10440474;28;19924;-67
2023/02/25 17:26:15;;;;;;;;;;;;;;;4.13;60.43;101405.16;10437279;28;19975;-67
2023/02/25 17:31:18;;;;;;;;;;;;;;;4.24;60.10;101419.59;10398187;28;20284;-67
2023/02/25 17:36:22;;;;;;;;;;;;;;;3.87;62.60;101420.34;10399086;28;19965;-67
2023/02/25 17:41:25;;;;;;;;;;;;;;;3.77;62.65;101436.94;10398123;28;20375;-67
2023/02/25 17:46:28;;;;;;;;;;;;;;;3.62;62.83;101432.88;10398786;28;19929;-67
2023/02/25 17:51:32;;;;;;;;;;;;;;;3.42;64.37;101442.75;10416051;28;19932;-67
2023/02/25 17:56:35;;;;;;;;;;;;;;;3.47;64.85;101453.88;10398018;28;19925;-67
2023/02/25 18:01:44;;;;;;;;;;;;;;;3.14;64.87;101461.31;10400803;28;19948;-67
2023/02/25 18:06:46;;;;;;;;;;;;;;;3.05;65.35;101472.66;10415029;28;20376;-67
2023/02/25 18:11:49;;;;;;;;;;;;;;;3.27;65.15;101464.56;10423413;28;19925;-67
2023/02/25 18:16:51;;;;;;;;;;;;;;;3.20;65.12;101471.56;10405471;28;19932;-67
2023/02/25 18:21:54;;;;;;;;;;;;;;;2.77;65.43;101486.03;10422283;28;20330;-67
2023/02/25 18:27:00;;;;;;;;;;;;;;;2.67;65.73;101496.50;10424177;28;19925;-67
2023/02/25 18:32:03;;;;;;;;;;;;;;;2.89;66.47;101494.47;10423353;28;19925;-67
2023/02/25 18:37:06;;;;;;;;;;;;;;;2.75;66.71;101505.84;10425443;28;19932;-67
2023/02/25 18:42:12;;;;;;;;;;;;;;;2.51;67.53;101517.38;10404925;28;19932;-67
2023/02/25 18:47:15;;;;;;;;;;;;;;;2.42;68.20;101518.34;10422854;28;19925;-67
2023/02/25 18:52:19;;;;;;;;;;;;;;;2.34;67.04;101522.75;10420985;28;19925;-67
2023/02/25 18:57:22;;;;;;;;;;;;;;;2.25;68.01;101520.25;10404526;28;19925;-66
2023/02/25 19:02:27;;;;;;;;;;;;;;;2.26;67.90;101518.53;10405200;28;19929;-67
2023/02/25 19:07:31;;;;;;;;;;;;;;;2.25;69.12;101529.75;10422063;28;19925;-67
2023/02/25 19:12:34;;;;;;;;;;;;;;;2.30;68.03;101539.16;10404460;28;19929;-66
2023/02/25 19:17:36;;;;;;;;;;;;;;;2.09;68.68;101535.09;10419567;28;19940;-67
2023/02/25 19:22:42;;;;;;;;;;;;;;;2.20;69.34;101534.97;10419812;28;19925;-67
2023/02/25 19:27:44;;;;;;;;;;;;;;;2.02;69.74;101538.59;10403083;28;19925;-67
2023/02/25 19:32:47;;;;;;;;;;;;;;;1.85;69.62;101539.63;10417710;28;19948;-67
2023/02/25 19:37:49;;;;;;;;;;;;;;;1.88;72.24;101546.47;10419721;28;20288;-68
2023/02/25 19:42:51;;;;;;;;;;;;;;;1.67;71.57;101555.28;10422019;28;20269;-68
2023/02/25 19:47:54;;;;;;;;;;;;;;;1.65;72.36;101559.59;10420197;28;19940;-68
2023/02/25 19:52:56;;;;;;;;;;;;;;;1.59;73.71;101557.91;10420257;28;19929;-68
2023/02/25 19:57:58;;;;;;;;;;;;;;;1.58;72.65;101568.22;10420324;28;20351;-68
2023/02/25 20:03:00;;;;;;;;;;;;;;;1.57;72.79;101563.97;10419806;28;19929;-68
2023/02/25 20:08:03;;;;;;;;;;;;;;;1.37;73.57;101577.00;10419621;28;19955;-68
2023/02/25 20:13:05;;;;;;;;;;;;;;;1.32;73.32;101578.75;10421466;28;19925;-68
2023/02/25 20:18:07;;;;;;;;;;;;;;;1.39;73.92;101585.59;10417118;28;19929;-68
2023/02/25 20:23:10;;;;;;;;;;;;;;;1.51;74.31;101593.22;10419018;28;19976;-68
2023/02/25 20:28:12;;;;;;;;;;;;;;;1.27;73.97;101594.25;10418164;28;20365;-68
2023/02/25 20:33:14;;;;;;;;;;;;;;;1.45;75.13;101598.47;10416774;28;20015;-68
2023/02/25 20:38:22;;;;;;;;;;;;;;;1.19;73.78;101601.19;10420543;28;19979;-68
2023/02/25 20:43:24;;;;;;;;;;;;;;;1.49;74.09;101606.16;10400837;28;19929;-68
2023/02/25 20:48:30;;;;;;;;;;;;;;;1.15;73.75;101599.50;10418010;28;19932;-68
2023/02/25 20:53:32;;;;;;;;;;;;;;;1.32;74.01;101604.56;10400346;28;20331;-68
2023/02/25 20:58:35;;;;;;;;;;;;;;;1.18;76.20;101613.22;10416077;28;19932;-68
2023/02/25 21:03:37;;;;;;;;;;;;;;;0.96;75.58;101614.19;10417229;28;20380;-68
2023/02/25 21:08:39;;;;;;;;;;;;;;;1.15;76.25;101620.13;10419308;28;19932;-68
2023/02/25 21:13:42;;;;;;;;;;;;;;;0.77;76.75;101628.88;10399098;28;20324;-68
2023/02/25 21:18:44;;;;;;;;;;;;;;;0.65;78.12;101628.06;10398943;28;19999;-68
2023/02/25 21:23:48;;;;;;;;;;;;;;;0.79;78.25;101637.47;10416757;28;19925;-68
2023/02/25 21:28:50;;;;;;;;;;;;;;;1.18;79.09;101640.72;10416625;28;19933;-68
2023/02/25 21:33:52;;;;;;;;;;;;;;;0.76;78.68;101645.19;10415391;28;19951;-69
2023/02/25 21:38:54;;;;;;;;;;;;;;;0.72;79.03;101652.09;10414547;28;19925;-68
2023/02/25 21:43:57;;;;;;;;;;;;;;;1.01;78.86;101646.84;10397629;28;20449;-68
2023/02/25 21:48:59;;;;;;;;;;;;;;;0.54;78.65;101650.44;10418408;28;19929;-68
2023/02/25 21:54:01;;;;;;;;;;;;;;;0.66;78.35;101659.84;10418734;28;19932;-68
2023/02/25 21:59:04;;;;;;;;;;;;;;;0.40;79.18;101667.63;10415374;28;19990;-68
2023/02/25 22:04:07;;;;;;;;;;;;;;;0.74;79.43;101669.28;10414399;28;20335;-68
2023/02/25 22:09:09;;;;;;;;;;;;;;;0.24;81.55;101683.09;10396709;28;19929;-68
2023/02/25 22:14:12;;;;;;;;;;;;;;;0.26;82.01;101693.41;10415290;28;19929;-68
2023/02/25 22:19:14;;;;;;;;;;;;;;;0.24;82.06;101701.13;10415081;28;19929;-68
2023/02/25 22:24:16;;;;;;;;;;;;;;;-0.08;85.26;101709.69;10412878;28;19929;-68
2023/02/25 22:29:18;;;;;;;;;;;;;;;-0.04;85.28;101710.56;10405524;23;20300;-64
2023/02/25 22:34:20;;;;;;;;;;;;;;;0.02;86.07;101707.13;10372635;28;19929;-64
2023/02/25 22:39:23;;;;;;;;;;;;;;;-0.07;86.46;101714.00;10373817;28;20351;-64
2023/02/25 22:44:25;;;;;;;;;;;;;;;-0.19;86.49;101713.94;10415217;28;19975;-64
2023/02/25 22:49:28;;;;;;;;;;;;;;;0.05;87.49;101713.16;10413034;28;19925;-64
2023/02/25 22:54:30;;;;;;;;;;;;;;;0.49;87.27;101719.16;10399426;28;19979;-65
2023/02/25 22:59:32;;;;;;;;;;;;;;;0.38;86.61;101719.16;10421105;28;19929;-64
2023/02/25 23:04:35;;;;;;;;;;;;;;;-0.25;86.93;101721.69;10421633;28;20288;-64
2023/02/25 23:09:37;;;;;;;;;;;;;;;-0.28;87.68;101727.66;10425056;28;19932;-64
2023/02/25 23:14:40;;;;;;;;;;;;;;;-0.24;86.81;101725.97;10421722;28;19925;-64
2023/02/25 23:19:42;;;;;;;;;;;;;;;-0.14;86.03;101726.84;10421011;28;20346;-64
2023/02/25 23:24:45;;;;;;;;;;;;;;;-0.13;87.54;101723.44;10419557;28;20331;-64
2023/02/25 23:29:47;;;;;;;;;;;;;;;-0.16;87.97;101726.84;10418871;28;20446;-64
2023/02/25 23:34:49;;;;;;;;;;;;;;;-0.32;89.90;101728.53;10420397;28;19972;-64
2023/02/25 23:39:51;;;;;;;;;;;;;;;-0.22;88.34;101725.13;10402633;28;19925;-64
2023/02/25 23:44:53;;;;;;;;;;;;;;;-0.08;89.84;101740.59;10419524;28;19925;-64
2023/02/25 23:49:56;;;;;;;;;;;;;;;-0.30;89.95;101729.38;10419793;28;19929;-64
2023/02/25 23:54:58;;;;;;;;;;;;;;;-0.12;89.99;101738.84;10419128;28;19925;-64
